Terminal Aerodrome Forecast
Issued by NWS

Home | Current Version | Previous Version | Text Only | Print | Product List | Glossary On
Versions: 1 2 3 4 5 6 7 8 9 10 11 12 13 14 15
000
FTUS41 KBTV 272330
TAFSLK
TAF
KSLK 272330Z 2800/2824 23008KT P6SM OVC035
     FM280400 23013G22KT 6SM -SHRA BR OVC018
     FM281100 25010G17KT 3SM -SHRASN BR OVC015
     FM281500 26010G17KT P6SM BKN030=

USA.gov is the U.S. government's official web portal to all federal, state and local government web resources and services.